Latest Weather Observations for Newman Airport

IDW60801

Issued at 2:02 pm WST Sunday 26 April 2015 (issued every 30 minutes, with the page automatically refreshed every 10 minutes)

About weather observations | Map of weather stations | Latest weather observations for WA | Other Formats
Station Details ID: 007176 Name: NEWMAN AERO Lat: -23.42 Lon: 119.80 Height: 524.0 m
Data from the previous 72 hours. | See also: Recent months at Newman Airport
Date/Time
WST
Temp
°C
App
Temp
°C
Dew
Point
Rel
Hum
%
Delta-T
°C
Wind Press
QNH
hPa
Press
MSL
hPa
Rain
since 9 am
mm
Dir
 
Spd
km/h
Gust
km/h
Spd
kts
Gust
kts
26/02:00pm 25.7 21.7 3.0 23 11.4 NE 13 20 7 11 1019.3 1016.3 0.0
26/01:30pm 24.0 19.6 2.8 25 10.4 E 15 26 8 14 1019.6 1016.5 0.0
26/01:00pm 24.2 19.8 2.9 25 10.5 ESE 15 20 8 11 1019.9 1016.8 0.0
26/12:30pm 23.7 19.6 4.1 28 9.9 E 15 24 8 13 1020.4 1017.4 0.0
26/12:00pm 22.6 17.9 3.2 28 9.5 E 17 28 9 15 1020.8 1017.8 0.0
26/11:30am 22.3 17.3 3.4 29 9.3 ENE 19 24 10 13 1021.6 1018.5 0.0
26/11:00am 21.6 17.4 3.8 31 8.8 E 15 22 8 12 1022.0 1019.0 0.0
26/10:30am 20.7 16.0 3.4 32 8.4 ENE 17 24 9 13 1022.4 1019.4 0.0
26/10:00am 20.1 15.4 3.3 33 8.1 E 17 24 9 13 1022.8 1019.8 0.0
26/09:30am 18.4 13.3 3.1 36 7.3 E 19 26 10 14 1022.9 1019.9 0.0
26/09:00am 17.2 12.4 2.8 38 6.7 E 17 26 9 14 1023.1 1020.1 0.0
26/08:30am 16.0 12.0 2.8 41 6.1 ESE 13 17 7 9 1023.0 1020.0 0.0
26/08:00am 15.8 11.5 3.3 43 5.8 E 15 22 8 12 1022.7 1019.7 0.0
26/07:30am 14.6 11.1 3.4 47 5.2 ESE 11 15 6 8 1022.3 1019.3 0.0
26/07:00am 13.8 10.8 3.9 51 4.6 SE 9 15 5 8 1022.2 1019.2 0.0
26/06:30am 13.6 10.9 3.7 51 4.6 SE 7 9 4 5 1022.0 1019.0 0.0
26/06:00am 13.7 10.9 3.2 49 4.8 ESE 7 11 4 6 1021.8 1018.8 0.0
26/05:30am 13.9 10.7 3.1 48 5.0 ESE 9 15 5 8 1021.5 1018.4 0.0
26/05:00am 14.1 10.9 3.3 48 5.0 SE 9 13 5 7 1021.2 1018.2 0.0
26/04:30am 14.6 11.4 2.8 45 5.4 ESE 9 13 5 7 1021.1 1018.1 0.0
26/04:00am 15.0 11.4 2.9 44 5.6 ESE 11 19 6 10 1021.1 1018.1 0.0
26/03:30am 15.2 11.9 2.7 43 5.8 ESE 9 17 5 9 1020.8 1017.8 0.0
26/03:00am 15.8 11.8 2.6 41 6.1 ESE 13 20 7 11 1020.8 1017.8 0.0
26/02:30am 16.1 12.1 2.9 41 6.2 ESE 13 20 7 11 1021.1 1018.1 0.0
26/02:00am 16.1 11.8 3.5 43 5.9 ESE 15 19 8 10 1021.2 1018.2 0.0
26/01:30am 15.9 12.4 3.4 43 5.9 ESE 11 17 6 9 1021.2 1018.2 0.0
26/01:00am 16.2 13.1 3.6 43 6.0 ESE 9 13 5 7 1021.3 1018.3 0.0
26/12:30am 16.3 13.6 3.7 43 6.0 ESE 7 13 4 7 1021.3 1018.3 0.0
26/12:00am 16.1 13.2 4.5 46 5.6 ESE 9 15 5 8 1021.3 1018.3 0.0
 
Date/Time
WST
Temp
°C
App
Temp
°C
Dew
Point
Rel
Hum
%
Delta-T
°C
Wind Press
QNH
hPa
Press
MSL
hPa
Rain
since 9 am
mm
Dir
 
Spd
km/h
Gust
km/h
Spd
kts
Gust
kts
25/11:30pm 16.2 13.8 5.2 48 5.4 SSE 7 9 4 5 1021.6 1018.5 0.0
25/11:00pm 16.6 13.4 4.9 46 5.7 ESE 11 15 6 8 1021.7 1018.6 0.0
25/10:30pm 16.5 13.8 5.5 48 5.4 ESE 9 13 5 7 1021.6 1018.5 0.0
25/10:00pm 17.3 15.1 5.3 45 5.9 ESE 6 7 3 4 1021.8 1018.8 0.0
25/09:30pm 17.6 15.0 6.2 47 5.8 SE 9 13 5 7 1021.8 1018.8 0.0
25/09:00pm 18.2 15.2 6.1 45 6.1 SE 11 15 6 8 1021.6 1018.5 0.0
25/08:30pm 18.5 15.7 7.0 47 5.9 SE 11 15 6 8 1021.3 1018.3 0.0
25/08:00pm 19.0 16.1 6.5 44 6.4 SE 11 15 6 8 1021.1 1018.1 0.0
25/07:30pm 19.6 17.1 6.7 43 6.7 SE 9 13 5 7 1020.9 1017.9 0.0
25/07:00pm 20.0 17.1 6.4 41 7.0 ESE 11 15 6 8 1020.3 1017.3 0.0
25/06:30pm 20.6 17.5 5.4 37 7.7 ESE 11 15 6 8 1020.0 1017.0 0.0
25/06:00pm 21.7 18.4 4.7 33 8.5 ESE 11 15 6 8 1019.8 1016.7 0.0
25/05:30pm 22.4 18.4 4.9 32 8.9 E 15 22 8 12 1019.3 1016.3 0.0
25/05:00pm 23.3 18.8 4.3 29 9.6 E 17 24 9 13 1019.1 1016.1 0.0
25/04:30pm 23.4 18.6 4.4 29 9.6 E 19 26 10 14 1018.8 1015.8 0.0
25/04:00pm 23.8 19.9 5.2 30 9.6 E 15 20 8 11 1018.7 1015.7 0.0
25/03:30pm 23.7 18.9 4.6 29 9.7 E 19 28 10 15 1018.5 1015.5 0.0
25/03:00pm 23.9 20.1 5.8 31 9.4 E 15 24 8 13 1018.7 1015.7 0.0
25/02:30pm 23.4 18.7 5.3 31 9.3 E 19 30 10 16 1018.8 1015.8 0.0
25/02:00pm 23.2 19.0 5.6 32 9.1 ESE 17 26 9 14 1018.9 1015.9 0.0
25/01:30pm 22.6 18.5 6.0 34 8.6 E 17 26 9 14 1019.1 1016.1 0.0
25/01:00pm 21.9 17.1 5.8 35 8.3 E 20 30 11 16 1019.5 1016.4 0.0
25/12:30pm 20.9 16.3 5.7 37 7.8 ESE 19 26 10 14 1019.9 1016.8 0.0
25/12:00pm 20.0 15.2 4.9 37 7.5 E 19 30 10 16 1020.4 1017.4 0.0
25/11:30am 20.2 15.6 5.4 38 7.5 ESE 19 32 10 17 1021.0 1018.0 0.0
25/11:00am 19.8 15.6 5.8 40 7.1 ESE 17 30 9 16 1021.3 1018.3 0.0
25/10:30am 18.2 13.2 4.7 41 6.6 E 20 28 11 15 1021.8 1018.8 0.0
25/10:00am 18.1 13.4 5.3 43 6.3 ESE 19 32 10 17 1022.0 1019.0 0.0
25/09:30am 16.7 11.7 4.7 45 5.8 ESE 20 30 11 16 1022.2 1019.2 0.0
25/09:00am 16.0 10.2 4.4 46 5.6 E 24 33 13 18 1022.3 1019.3 0.0
25/08:30am 15.3 9.9 4.4 48 5.2 ESE 22 33 12 18 1022.2 1019.2 0.0
25/08:00am 14.7 9.3 4.4 50 4.9 ESE 22 35 12 19 1022.0 1019.0 0.0
25/07:30am 14.2 9.4 4.5 52 4.6 ESE 19 28 10 15 1021.7 1018.6 0.0
25/07:00am 13.8 9.5 5.2 56 4.1 ESE 17 24 9 13 1021.5 1018.4 0.0
25/06:30am 13.3 9.4 5.2 58 3.9 ESE 15 20 8 11 1021.1 1018.1 0.0
25/06:00am 13.5 10.0 5.4 58 3.9 ESE 13 20 7 11 1020.8 1017.8 0.0
25/05:30am 13.8 10.4 5.9 59 3.9 ESE 13 20 7 11 1020.5 1017.5 0.0
25/05:00am 14.2 10.8 6.1 58 4.0 ESE 13 20 7 11 1020.1 1017.1 0.0
25/04:30am 14.5 11.1 6.1 57 4.1 ESE 13 20 7 11 1019.9 1016.8 0.0
25/04:00am 14.7 11.7 6.0 56 4.3 ESE 11 15 6 8 1019.7 1016.6 0.0
25/03:30am 15.1 11.7 6.1 55 4.5 ESE 13 22 7 12 1019.5 1016.4 0.0
25/03:00am 15.4 11.7 6.1 54 4.6 ESE 15 26 8 14 1019.6 1016.5 0.0
25/02:30am 15.7 12.0 6.2 53 4.7 ESE 15 24 8 13 1019.7 1016.6 0.0
25/02:00am 16.0 12.7 6.2 52 4.9 ESE 13 20 7 11 1019.9 1016.8 0.0
25/01:30am 16.4 12.7 6.2 51 5.1 ESE 15 24 8 13 1019.8 1016.7 0.0
25/01:00am 16.8 13.9 6.3 50 5.3 ESE 11 20 6 11 1019.9 1016.8 0.0
25/12:30am 16.9 13.6 6.4 50 5.3 ESE 13 19 7 10 1020.0 1017.0 0.0
25/12:00am 17.5 13.8 6.4 48 5.6 ESE 15 26 8 14 1019.9 1016.8 0.0
 
Date/Time
WST
Temp
°C
App
Temp
°C
Dew
Point
Rel
Hum
%
Delta-T
°C
Wind Press
QNH
hPa
Press
MSL
hPa
Rain
since 9 am
mm
Dir
 
Spd
km/h
Gust
km/h
Spd
kts
Gust
kts
24/11:30pm 17.9 14.2 6.4 47 5.8 ESE 15 26 8 14 1019.7 1016.6 0.0
24/11:00pm 18.0 14.0 6.5 47 5.8 ESE 17 24 9 13 1019.7 1016.6 0.0
24/10:30pm 18.4 14.4 6.6 46 6.0 ESE 17 26 9 14 1019.8 1016.7 0.0
24/10:00pm 18.8 14.8 6.6 45 6.2 ESE 17 26 9 14 1019.9 1016.8 0.0
24/09:30pm 19.2 15.2 6.7 44 6.4 ESE 17 22 9 12 1020.1 1017.1 0.0
24/09:00pm 19.3 15.4 7.1 45 6.3 ESE 17 24 9 13 1020.1 1017.1 0.0
24/08:30pm 19.1 15.7 7.8 48 5.9 SE 15 19 8 10 1019.9 1016.8 0.0
24/08:00pm 19.2 15.9 7.9 48 5.9 SE 15 17 8 9 1019.7 1016.6 0.0
24/07:30pm 20.0 17.1 8.0 46 6.4 ESE 13 17 7 9 1019.5 1016.4 0.0
24/07:00pm 20.4 18.3 8.1 45 6.5 ESE 9 13 5 7 1019.2 1016.2 0.0
24/06:30pm 21.1 18.9 8.0 43 7.0 ESE 9 11 5 6 1018.9 1015.9 0.0
24/06:00pm 22.4 19.6 7.0 37 8.1 ESE 11 19 6 10 1018.4 1015.4 0.0
24/05:30pm 23.2 19.2 6.5 34 8.8 ESE 17 26 9 14 1018.0 1014.9 0.0
24/05:00pm 23.9 20.0 7.1 34 9.0 ESE 17 28 9 15 1017.8 1014.7 0.0
24/04:30pm 24.0 19.4 6.3 32 9.3 E 20 33 11 18 1017.5 1014.4 0.0
24/04:00pm 24.0 19.4 6.7 33 9.2 E 20 33 11 18 1017.6 1014.5 0.0
24/03:30pm 24.5 19.6 6.7 32 9.5 E 22 33 12 18 1017.8 1014.7 0.0
24/03:00pm 24.1 19.1 6.4 32 9.3 E 22 32 12 17 1017.7 1014.6 0.0
24/02:30pm 24.4 19.2 7.1 33 9.3 E 24 33 13 18 1017.6 1014.5 0.0
24/02:00pm 24.2 19.3 6.9 33 9.2 E 22 33 12 18 1017.7 1014.6 0.0
24/01:30pm 23.9 19.1 7.5 35 8.8 E 22 32 12 17 1017.8 1014.7 0.0
24/01:00pm 23.8 18.6 7.4 35 8.8 ESE 24 33 13 18 1018.0 1014.9 0.0
24/12:30pm 23.3 18.0 7.0 35 8.7 E 24 35 13 19 1018.3 1015.3 0.0
24/12:00pm 22.5 17.9 6.7 36 8.3 E 20 33 11 18 1018.7 1015.7 0.0
24/11:30am 22.3 17.0 6.9 37 8.1 E 24 37 13 20 1019.3 1016.3 0.0
24/11:00am 22.0 16.7 7.0 38 7.9 E 24 39 13 21 1019.8 1016.7 0.0
24/10:30am 21.1 16.2 7.0 40 7.4 E 22 32 12 17 1020.0 1017.0 0.0
24/10:00am 20.7 15.1 7.0 41 7.1 E 26 35 14 19 1020.2 1017.2 0.0
24/09:30am 19.9 13.9 7.0 43 6.7 E 28 41 15 22 1020.1 1017.1 0.0
24/09:00am 18.8 12.9 7.3 47 6.0 E 28 46 15 25 1020.2 1017.2 0.0
24/08:57am 18.4 12.4 7.2 48 5.8 E 28 46 15 25 1020.3 1017.3 0.0
24/08:30am 17.5 12.9 8.1 54 4.9 ESE 22 32 12 17 1020.2 1017.2 0.0
24/08:00am 17.0 12.9 7.9 55 4.7 ESE 19 28 10 15 1020.1 1017.1 0.0
24/07:30am 15.6 11.7 8.6 63 3.7 SE 19 30 10 16 1019.6 1016.5 0.0
24/07:00am 13.6 11.4 8.0 69 2.8 SSE 9 13 5 7 1019.7 1016.6 0.0
24/06:30am 12.4 10.8 7.9 74 2.3 SSE 6 7 3 4 1019.6 1016.5 0.0
24/06:00am 12.5 10.7 7.8 73 2.4 SE 7 9 4 5 1019.2 1016.2 0.0
24/05:30am 12.8 10.2 7.9 72 2.5 SE 11 13 6 7 1018.9 1015.9 0.0
24/05:00am 12.9 10.4 8.0 72 2.5 SE 11 13 6 7 1018.8 1015.8 0.0
24/04:30am 12.9 11.1 8.0 72 2.5 SE 7 11 4 6 1018.8 1015.8 0.0
24/04:00am 12.9 11.3 8.2 73 2.4 SE 6 9 3 5 1018.8 1015.8 0.0
24/03:30am 12.9 11.3 8.0 72 2.5 SSE 6 7 3 4 1019.0 1016.0 0.0
24/03:00am 13.6 11.8 8.0 69 2.8 SSE 7 9 4 5 1019.0 1016.0 0.0
24/02:30am 14.0 11.9 8.2 68 3.0 SSE 9 11 5 6 1019.0 1016.0 0.0
24/02:00am 14.5 12.0 8.2 66 3.2 SE 11 15 6 8 1019.0 1016.0 0.0
24/01:30am 14.8 11.9 8.3 65 3.4 SE 13 17 7 9 1019.1 1016.1 0.0
24/01:00am 15.1 12.6 8.3 64 3.5 ESE 11 15 6 8 1019.3 1016.3 0.0
24/12:30am 15.5 13.5 8.5 63 3.6 ESE 9 13 5 7 1019.3 1016.3 0.0
24/12:00am 15.6 13.6 8.8 64 3.6 ESE 9 13 5 7 1019.5 1016.4 0.0
 
Date/Time
WST
Temp
°C
App
Temp
°C
Dew
Point
Rel
Hum
%
Delta-T
°C
Wind Press
QNH
hPa
Press
MSL
hPa
Rain
since 9 am
mm
Dir
 
Spd
km/h
Gust
km/h
Spd
kts
Gust
kts
23/11:30pm 16.1 14.1 8.8 62 3.8 ESE 9 13 5 7 1019.7 1016.6 0.0
23/11:00pm 17.0 14.8 9.2 60 4.1 ESE 11 15 6 8 1019.8 1016.7 0.0
23/10:30pm 17.1 15.0 9.8 62 3.9 SE 11 15 6 8 1019.9 1016.8 0.0
23/10:00pm 17.2 15.1 9.9 62 3.9 SE 11 17 6 9 1019.8 1016.7 0.0
23/09:30pm 17.2 15.1 9.9 62 4.0 ESE 11 17 6 9 1019.5 1016.4 0.0
23/09:00pm 17.3 15.3 10.2 63 3.9 SE 11 17 6 9 1019.6 1016.5 0.0
23/08:30pm 17.4 15.4 10.1 62 4.0 ESE 11 17 6 9 1019.6 1016.5 0.0
23/08:00pm 17.1 15.0 9.8 62 3.9 ESE 11 15 6 8 1019.1 1016.1 0.0
23/07:30pm 17.5 15.4 9.7 60 4.2 ESE 11 17 6 9 1018.8 1015.8 0.0
23/07:00pm 17.8 15.7 9.9 60 4.3 SE 11 13 6 7 1018.5 1015.5 0.0
23/06:30pm 18.1 15.9 9.5 57 4.6 ESE 11 15 6 8 1018.4 1015.4 0.0
23/06:00pm 18.6 14.8 9.1 54 5.1 ESE 19 24 10 13 1018.0 1014.9 0.0
23/05:30pm 19.3 15.4 9.5 53 5.3 SE 20 30 11 16 1017.6 1014.5 0.0
23/05:00pm 20.2 16.3 9.5 50 5.8 SE 20 28 11 15 1017.0 1014.0 0.0
23/04:30pm 20.7 16.9 9.9 50 6.0 SE 20 30 11 16 1016.9 1013.9 0.0
23/04:00pm 21.0 16.8 9.6 48 6.3 SE 22 30 12 16 1016.8 1013.8 0.0
23/03:30pm 21.0 16.8 9.6 48 6.3 SE 22 30 12 16 1016.5 1013.4 0.0
23/03:00pm 21.3 17.7 10.5 50 6.0 SE 20 28 11 15 1016.5 1013.4 0.0
23/02:30pm 21.4 18.0 11.1 52 5.8 SE 20 30 11 16 1016.6 1013.6 0.0

Other Formats:

Comma delimited format used in spreadsheet applications
http://www.bom.gov.au/fwo/IDW60801/IDW60801.94317.axf

JavaScript Object Notation format (JSON) in row-major order
http://www.bom.gov.au/fwo/IDW60801/IDW60801.94317.json